Time;durP1;ratioP1;P1;durP2;ratioP2;P2;SDS_P1;SDS_P2;PMS_P1;PMS_P2;Temp;Humidity;BMP_temperature;BMP_pressure;BME280_temperature;BME280_humidity;BME280_pressure;Samples;Min_cycle;Max_cycle;Signal;HPM_P1;HPM_P2
2020/12/04 00:01:47;;;;;;;47.63;27.13;;;;;;;-0.75;73.28;96629.99;1819989;79;21131;-86
2020/12/04 00:04:14;;;;;;;53.83;31.27;;;;;;;-0.72;73.11;96651.02;1820078;79;21120;-82
2020/12/04 00:06:43;;;;;;;66.77;38.43;;;;;;;-0.71;73.28;96659.17;1822406;79;21156;-79
2020/12/04 00:09:10;;;;;;;62.83;35.20;;;;;;;-0.72;73.20;96658.78;1795304;79;21282;-80
2020/12/04 00:11:40;;;;;;;59.03;35.10;;;;;;;-0.74;73.20;96652.38;1790129;80;21708;-81
2020/12/04 00:14:08;;;;;;;65.83;37.07;;;;;;;-0.74;73.20;96656.27;1788971;80;21250;-81
2020/12/04 00:16:35;;;;;;;62.23;33.83;;;;;;;-0.72;73.13;96657.05;1790394;80;21278;-80
2020/12/04 00:19:06;;;;;;;58.30;32.83;;;;;;;-0.73;73.52;96661.84;1806904;79;21228;-81
2020/12/04 00:21:34;;;;;;;65.15;36.70;;;;;;;-0.70;73.34;96661.72;1821253;79;21554;-80
2020/12/04 00:24:02;;;;;;;61.43;34.93;;;;;;;-0.67;73.31;96659.45;1794493;79;21143;-80
2020/12/04 00:26:37;;;;;;;54.63;32.63;;;;;;;-0.70;73.33;96664.30;1788929;80;21108;-83
2020/12/04 00:29:15;;;;;;;62.37;33.23;;;;;;;-0.71;73.28;96659.17;1790189;80;21148;-79
2020/12/04 00:31:48;;;;;;;63.13;35.13;;;;;;;-0.74;73.10;96665.33;1788634;80;21148;-83
2020/12/04 00:34:16;;;;;;;56.40;31.30;;;;;;;-0.75;73.31;96667.52;1788193;80;21151;-78
2020/12/04 00:36:48;;;;;;;55.73;30.23;;;;;;;-0.76;73.34;96667.12;1788593;80;21128;-80
2020/12/04 00:39:16;;;;;;;58.00;34.30;;;;;;;-0.79;73.21;96667.28;1789726;80;21128;-79
2020/12/04 00:41:45;;;;;;;67.67;38.13;;;;;;;-0.80;73.22;96666.89;1795283;79;21267;-80
2020/12/04 00:44:13;;;;;;;65.87;36.63;;;;;;;-0.81;73.25;96681.55;1794146;79;21263;-81
2020/12/04 00:46:46;;;;;;;71.43;38.83;;;;;;;-0.82;73.30;96668.69;1794059;80;21156;-80
2020/12/04 00:49:14;;;;;;;62.67;38.47;;;;;;;-0.84;73.33;96668.77;1792574;80;21305;-79
2020/12/04 00:51:42;;;;;;;58.40;31.20;;;;;;;-0.84;73.22;96663.59;1799282;80;21159;-81
2020/12/04 00:54:10;;;;;;;47.37;26.47;;;;;;;-0.86;73.30;96665.39;1799133;80;21120;-80
2020/12/04 00:56:37;;;;;;;43.50;25.93;;;;;;;-0.87;73.30;96647.32;1799295;79;21254;-78
2020/12/04 00:59:09;;;;;;;46.80;27.37;;;;;;;-0.87;74.42;96653.79;1825188;78;21281;-81
2020/12/04 01:01:37;;;;;;;45.97;25.37;;;;;;;-0.84;73.97;96641.59;1830292;78;21731;-81
2020/12/04 01:04:04;;;;;;;54.03;30.33;;;;;;;-0.82;73.84;96647.98;1830112;78;21124;-78
2020/12/04 01:06:32;;;;;;;51.87;31.23;;;;;;;-0.82;73.77;96651.87;1829620;78;21562;-79
2020/12/04 01:08:59;;;;;;;57.13;30.47;;;;;;;-0.81;73.77;96648.37;1814172;78;21251;-80
2020/12/04 01:11:30;;;;;;;60.90;31.13;;;;;;;-0.82;73.61;96652.70;1798002;80;21147;-83
2020/12/04 01:13:57;;;;;;;44.23;25.03;;;;;;;-0.80;73.63;96657.36;1829747;78;21080;-79
2020/12/04 01:16:27;;;;;;;58.67;33.63;;;;;;;-0.83;73.90;96649.72;1830911;78;21092;-78
2020/12/04 01:19:02;;;;;;;68.43;34.70;;;;;;;-0.81;73.79;96654.84;1830564;78;21123;-79
2020/12/04 01:21:29;;;;;;;48.70;27.83;;;;;;;-0.79;74.03;96651.28;1812189;78;21229;-79
2020/12/04 01:23:57;;;;;;;51.50;28.07;;;;;;;-0.79;73.69;96653.05;1798199;80;21266;-81
2020/12/04 01:26:24;;;;;;;64.90;37.17;;;;;;;-0.80;73.64;96656.06;1797994;80;21340;-80
2020/12/04 01:28:51;;;;;;;56.67;30.70;;;;;;;-0.79;73.80;96654.34;1800450;78;21574;-80
2020/12/04 01:31:19;;;;;;;64.30;34.83;;;;;;;-0.79;73.61;96656.92;1798188;80;21257;-80
2020/12/04 01:33:49;;;;;;;62.47;35.13;;;;;;;-0.84;73.59;96658.84;1769778;80;21171;-81
2020/12/04 01:36:17;;;;;;;68.43;38.33;;;;;;;-0.86;73.50;96658.06;1820061;78;21238;-81
2020/12/04 01:38:49;;;;;;;67.53;35.63;;;;;;;-0.87;73.69;96672.77;1830314;78;21266;-80
2020/12/04 01:41:18;;;;;;;61.43;32.90;;;;;;;-0.85;73.75;96669.67;1831843;78;21258;-80
2020/12/04 01:43:46;;;;;;;63.93;36.73;;;;;;;-0.84;73.69;96671.79;1831793;78;21250;-78
2020/12/04 01:46:17;;;;;;;58.13;32.60;;;;;;;-0.86;73.58;96661.95;1831442;78;21135;-80
2020/12/04 01:48:45;;;;;;;55.30;30.73;;;;;;;-0.88;73.72;96656.02;1802396;78;21144;-78
2020/12/04 01:51:16;;;;;;;55.43;33.50;;;;;;;-0.85;73.61;96665.78;1790785;80;21270;-80
2020/12/04 01:53:44;;;;;;;59.37;33.13;;;;;;;-0.85;73.59;96666.22;1788434;80;21704;-81
2020/12/04 01:56:13;;;;;;;55.50;31.40;;;;;;;-0.86;73.54;96673.59;1789661;80;21266;-79
2020/12/04 01:58:42;;;;;;;60.63;33.77;;;;;;;-0.88;73.60;96672.84;1789605;80;21538;-80
2020/12/04 02:01:13;;;;;;;58.47;31.13;;;;;;;-0.88;73.54;96667.66;1793562;80;21727;-80
2020/12/04 02:03:44;;;;;;;55.23;30.37;;;;;;;-0.89;73.39;96655.16;1775532;80;21135;-79
2020/12/04 02:06:23;;;;;;;53.13;27.90;;;;;;;-0.94;73.43;96650.64;1793789;80;21160;-80
2020/12/04 02:09:08;;;;;;;58.50;31.73;;;;;;;-0.95;73.37;96647.19;1794083;80;21159;-81
2020/12/04 02:11:36;;;;;;;54.50;28.53;;;;;;;-1.00;73.39;96656.91;1793258;80;21263;-80
2020/12/04 02:14:08;;;;;;;52.00;29.17;;;;;;;-1.03;73.31;96646.67;1759183;79;21122;-79
2020/12/04 02:16:45;;;;;;;54.10;32.33;;;;;;;-1.02;73.58;96652.23;1781439;80;21258;-83
2020/12/04 02:19:24;;;;;;;46.63;25.70;;;;;;;-1.00;73.58;96638.80;1789070;80;21270;-79
2020/12/04 02:21:49;;;;;;;53.30;28.80;;;;;;;-1.06;73.28;96641.61;1790073;80;21274;-85
2020/12/04 02:24:20;;;;;;;50.60;29.57;;;;;;;-1.11;73.46;96642.27;1789895;80;21310;-78
2020/12/04 02:26:48;;;;;;;53.33;31.13;;;;;;;-1.09;73.72;96648.23;1790005;80;21258;-80
2020/12/04 02:29:15;;;;;;;46.93;25.97;;;;;;;-1.05;73.81;96648.47;1789770;80;21317;-80
2020/12/04 02:31:42;;;;;;;48.67;28.57;;;;;;;-1.00;73.86;96651.73;1788666;80;21743;-78
2020/12/04 02:34:10;;;;;;;50.63;27.17;;;;;;;-0.99;73.73;96644.80;1788549;80;21281;-80
2020/12/04 02:36:38;;;;;;;43.97;24.90;;;;;;;-0.99;73.71;96634.02;1794558;79;21163;-79
2020/12/04 02:39:09;;;;;;;42.97;26.40;;;;;;;-0.95;73.88;96639.43;1820575;79;21262;-82
2020/12/04 02:41:36;;;;;;;38.90;23.50;;;;;;;-0.93;73.76;96642.41;1812889;79;21127;-78
2020/12/04 02:44:03;;;;;;;43.10;23.37;;;;;;;-0.94;73.93;96631.23;1820749;79;21277;-79
2020/12/04 02:46:31;;;;;;;43.30;25.60;;;;;;;-1.02;73.66;96645.77;1821358;79;21132;-80
2020/12/04 02:48:58;;;;;;;47.53;26.73;;;;;;;-0.98;73.79;96634.84;1813620;78;21235;-80
2020/12/04 02:51:31;;;;;;;41.00;23.30;;;;;;;-0.97;73.90;96646.87;1794889;80;21151;-79
2020/12/04 02:53:58;;;;;;;41.53;25.47;;;;;;;-0.97;74.13;96646.41;1796717;79;21093;-79
2020/12/04 02:56:25;;;;;;;45.33;26.33;;;;;;;-0.98;73.98;96634.41;1798800;79;21125;-80
2020/12/04 02:58:55;;;;;;;40.20;22.10;;;;;;;-0.94;74.17;96632.53;1798355;79;21179;-79
2020/12/04 03:01:22;;;;;;;35.07;20.83;;;;;;;-0.87;74.26;96635.67;1797601;79;21403;-80
2020/12/04 03:03:52;;;;;;;41.50;25.37;;;;;;;-0.87;73.86;96636.97;1798309;80;21128;-82
2020/12/04 03:06:20;;;;;;;42.27;25.07;;;;;;;-0.89;73.94;96638.80;1797880;79;21306;-79
2020/12/04 03:08:49;;;;;;;36.93;18.80;;;;;;;-0.93;73.97;96630.33;1796299;79;21270;-80
2020/12/04 03:11:21;;;;;;;32.00;18.43;;;;;;;-0.97;73.68;96610.19;1795483;80;21262;-78
2020/12/04 03:13:49;;;;;;;40.73;24.00;;;;;;;-0.99;74.00;96611.16;1795765;79;21140;-79
2020/12/04 03:16:19;;;;;;;49.30;23.77;;;;;;;-1.02;74.25;96612.14;1795619;80;21254;-80
2020/12/04 03:18:46;;;;;;;31.30;18.00;;;;;;;-1.00;74.26;96616.80;1795448;80;21273;-79
2020/12/04 03:21:19;;;;;;;30.37;17.03;;;;;;;-0.98;74.30;96606.38;1795393;79;21131;-78
2020/12/04 03:23:56;;;;;;;30.02;14.45;;;;;;;-0.93;74.30;96604.45;1795744;79;21250;-78
2020/12/04 03:26:23;;;;;;;36.70;17.57;;;;;;;-0.86;74.44;96598.11;1795182;80;21329;-78
2020/12/04 03:28:51;;;;;;;37.27;19.33;;;;;;;-0.82;74.39;96598.34;1787493;80;21124;-80
2020/12/04 03:31:18;;;;;;;25.97;14.63;;;;;;;-0.77;74.42;96601.20;1795355;80;21255;-78
2020/12/04 03:33:46;;;;;;;26.60;14.93;;;;;;;-0.71;74.38;96603.08;1795531;79;21136;-80
2020/12/04 03:36:15;;;;;;;32.43;18.23;;;;;;;-0.67;74.25;96605.08;1795159;80;21254;-78
2020/12/04 03:38:45;;;;;;;31.03;18.67;;;;;;;-0.69;74.14;96597.36;1728459;83;21305;-79
2020/12/04 03:41:19;;;;;;;28.87;14.47;;;;;;;-0.69;74.18;96609.02;1742868;82;21120;-80
2020/12/04 03:43:47;;;;;;;30.87;17.57;;;;;;;-0.65;74.20;96598.92;1727076;83;21214;-81
2020/12/04 03:46:18;;;;;;;23.63;14.60;;;;;;;-0.59;74.37;96591.78;1742522;82;21293;-81
2020/12/04 03:48:45;;;;;;;24.47;14.17;;;;;;;-0.51;74.14;96594.91;1742442;82;21144;-80
2020/12/04 03:51:14;;;;;;;18.53;11.13;;;;;;;-0.45;74.05;96595.92;1744850;82;21333;-80
2020/12/04 03:53:41;;;;;;;23.87;13.87;;;;;;;-0.39;73.82;96610.35;1745159;82;21281;-80
2020/12/04 03:56:12;;;;;;;21.93;12.97;;;;;;;-0.35;73.71;96609.30;1758271;81;21290;-79
2020/12/04 03:58:47;;;;;;;26.97;14.60;;;;;;;-0.27;73.08;96608.96;1743888;82;21588;-81
2020/12/04 04:01:16;;;;;;;31.97;16.37;;;;;;;-0.28;73.28;96615.91;1736366;82;21306;-79
2020/12/04 04:03:44;;;;;;;13.07;8.27;;;;;;;-0.25;73.35;96608.45;1704980;83;21716;-80
2020/12/04 04:06:23;;;;;;;22.87;12.23;;;;;;;-0.18;73.23;96618.45;1727073;83;21191;-82
2020/12/04 04:08:51;;;;;;;28.03;15.77;;;;;;;-0.13;72.87;96623.42;1743032;82;21275;-84
2020/12/04 04:11:28;;;;;;;23.53;12.60;;;;;;;-0.10;72.85;96618.11;1742022;82;21124;-78
2020/12/04 04:13:56;;;;;;;21.65;11.00;;;;;;;-0.07;72.60;96603.73;1744346;82;21135;-78
2020/12/04 04:16:26;;;;;;;25.50;14.93;;;;;;;-0.03;72.58;96594.89;1743212;82;21175;-81
2020/12/04 04:18:54;;;;;;;25.73;13.37;;;;;;;-0.01;72.84;96609.92;1744087;82;21140;-79
2020/12/04 04:21:21;;;;;;;31.73;17.93;;;;;;;0.04;72.76;96605.00;1744251;82;21262;-79
2020/12/04 04:23:48;;;;;;;27.13;16.20;;;;;;;0.11;72.89;96614.16;1744150;82;21251;-81
2020/12/04 04:26:17;;;;;;;28.13;16.00;;;;;;;0.15;72.94;96614.39;1773707;81;21124;-82
2020/12/04 04:28:51;;;;;;;17.33;8.83;;;;;;;0.21;72.84;96614.12;1740748;82;21120;-83
2020/12/04 04:31:18;;;;;;;13.73;7.20;;;;;;;0.29;72.30;96612.45;1769277;81;21281;-81
2020/12/04 04:33:45;;;;;;;27.37;15.13;;;;;;;0.35;72.30;96608.30;1766630;81;21179;-86
2020/12/04 04:36:13;;;;;;;21.60;13.10;;;;;;;0.42;72.44;96595.41;1766399;81;21187;-82
2020/12/04 04:38:40;;;;;;;23.50;13.30;;;;;;;0.51;72.22;96602.37;1767323;81;21152;-84
2020/12/04 04:41:08;;;;;;;22.97;13.07;;;;;;;0.59;72.51;96595.91;1741646;82;21795;-84
2020/12/04 04:43:36;;;;;;;16.73;10.37;;;;;;;0.66;72.39;96600.32;1773452;81;21286;-82
2020/12/04 04:46:20;;;;;;;23.27;12.82;;;;;;;0.74;72.03;96599.96;1738585;82;21157;-79
2020/12/04 04:48:54;;;;;;;16.70;8.20;;;;;;;0.80;71.74;96597.05;1771951;81;21325;-84
2020/12/04 04:51:25;;;;;;;26.52;14.43;;;;;;;0.87;71.46;96601.50;1739589;82;21163;-83
2020/12/04 04:53:57;;;;;;;15.05;8.80;;;;;;;0.89;71.70;96597.08;1741585;82;21327;-80
2020/12/04 04:56:24;;;;;;;18.23;10.90;;;;;;;0.92;71.62;96590.45;1707533;84;21152;-83
2020/12/04 04:58:53;;;;;;;15.90;9.20;;;;;;;1.02;71.59;96589.52;1712682;82;21224;-81
2020/12/04 05:01:20;;;;;;;14.90;8.83;;;;;;;1.31;71.67;96589.80;1734223;82;21293;-80
2020/12/04 05:04:04;;;;;;;11.15;5.62;;;;;;;1.56;71.38;96595.41;1724394;83;21215;-81
2020/12/04 05:06:37;;;;;;;16.37;8.35;;;;;;;1.78;70.51;96599.48;1742554;82;21127;-84
2020/12/04 05:09:08;;;;;;;12.93;6.58;;;;;;;2.02;69.88;96592.14;1710387;83;21175;-82
2020/12/04 05:11:36;;;;;;;12.13;8.35;;;;;;;2.23;68.47;96587.97;1739794;82;21198;-83
2020/12/04 05:14:22;;;;;;;13.13;7.97;;;;;;;2.47;66.59;96580.57;1739661;82;21159;-86
2020/12/04 05:16:47;;;;;;;11.38;6.33;;;;;;;2.61;66.66;96572.47;1742288;81;21179;-78
2020/12/04 05:19:29;;;;;;;13.83;8.10;;;;;;;2.73;66.19;96568.32;1713260;84;21557;-80
2020/12/04 05:22:17;;;;;;;13.08;7.90;;;;;;;2.79;65.28;96572.72;1679296;84;21202;-85
2020/12/04 05:24:48;;;;;;;14.58;8.78;;;;;;;2.84;65.32;96576.36;1735413;83;21134;-82
2020/12/04 05:27:30;;;;;;;11.93;7.08;;;;;;;2.88;65.42;96592.16;1738379;83;21135;-82
2020/12/04 05:30:00;;;;;;;13.80;8.28;;;;;;;2.90;66.02;96606.41;1740930;82;21553;-84
2020/12/04 05:32:28;;;;;;;14.25;8.05;;;;;;;2.92;66.26;96600.66;1737061;82;21179;-85
2020/12/04 05:35:09;;;;;;;14.68;7.62;;;;;;;2.94;64.59;96603.55;1739722;82;21157;-84
2020/12/04 05:37:42;;;;;;;10.88;5.85;;;;;;;2.95;63.72;96585.70;1739021;82;21614;-86
2020/12/04 05:40:12;;;;;;;10.93;6.85;;;;;;;3.02;65.23;96593.14;1739394;82;21146;-84
2020/12/04 05:42:40;;;;;;;8.83;5.25;;;;;;;3.09;63.53;96582.73;1742628;82;21157;-83
2020/12/04 05:45:09;;;;;;;13.25;7.78;;;;;;;3.16;63.96;96581.92;1739411;82;21146;-85
2020/12/04 05:47:40;;;;;;;10.82;7.20;;;;;;;3.18;63.48;96583.98;1738466;82;21148;-79
2020/12/04 05:50:14;;;;;;;15.05;8.40;;;;;;;3.22;62.47;96588.92;1708131;84;21170;-83
2020/12/04 05:52:48;;;;;;;15.68;11.08;;;;;;;3.26;64.41;96605.20;1711686;84;21134;-80
2020/12/04 05:55:18;;;;;;;19.17;10.82;;;;;;;3.09;63.61;96615.29;1711602;84;21221;-82
2020/12/04 05:58:01;;;;;;;21.25;13.05;;;;;;;2.91;63.42;96605.02;1736763;82;21126;-84
2020/12/04 06:00:32;;;;;;;15.60;8.95;;;;;;;2.72;64.05;96601.33;1742020;82;21272;-82
2020/12/04 06:03:03;;;;;;;28.32;14.18;;;;;;;2.64;65.35;96610.03;1739348;82;21122;-80
2020/12/04 06:05:33;;;;;;;18.17;9.38;;;;;;;2.50;65.09;96609.50;1737927;82;21120;-82
2020/12/04 06:08:04;;;;;;;16.45;9.53;;;;;;;2.47;65.79;96601.38;1748541;82;21139;-85
2020/12/04 06:10:34;;;;;;;12.50;7.72;;;;;;;2.39;65.93;96596.25;1697096;85;21258;-83
2020/12/04 06:13:04;;;;;;;16.42;10.35;;;;;;;2.49;65.86;96626.86;1697323;85;21230;-86
2020/12/04 06:15:34;;;;;;;21.77;10.68;;;;;;;2.48;65.37;96625.17;1693370;85;21151;-83
2020/12/04 06:18:29;;;;;;;14.70;8.55;;;;;;;2.49;65.12;96637.74;1674456;85;21307;-87
2020/12/04 06:20:59;;;;;;;14.25;9.90;;;;;;;2.49;65.69;96624.73;1692969;85;21191;-81
2020/12/04 06:23:28;;;;;;;20.45;10.98;;;;;;;2.47;65.41;96617.47;1695902;85;21272;-86
2020/12/04 06:26:03;;;;;;;19.67;10.48;;;;;;;2.53;65.35;96612.39;1721695;82;21146;-86
2020/12/04 06:28:52;;;;;;;18.02;10.43;;;;;;;2.59;65.11;96621.14;1731532;82;21182;-84
2020/12/04 06:31:35;;;;;;;12.70;7.72;;;;;;;2.70;64.36;96620.09;1779630;79;25891;-84
2020/12/04 06:34:22;;;;;;;20.85;11.08;;;;;;;2.73;65.27;96628.18;1753962;82;21148;-81
2020/12/04 06:36:53;;;;;;;17.48;9.78;;;;;;;2.74;64.91;96636.37;1726645;83;21353;-85
2020/12/04 06:39:30;;;;;;;13.98;9.55;;;;;;;2.79;64.22;96640.39;1743877;82;21105;-85
2020/12/04 06:41:59;;;;;;;12.85;7.05;;;;;;;2.87;64.46;96632.61;1749913;82;21550;-84
2020/12/04 06:44:31;;;;;;;17.07;9.73;;;;;;;2.93;64.63;96633.55;1659732;85;21179;-82
2020/12/04 06:47:31;;;;;;;17.10;10.25;;;;;;;2.93;63.57;96628.34;1686702;85;21864;-85
2020/12/04 06:50:03;;;;;;;11.38;6.80;;;;;;;2.96;63.50;96625.13;1674567;84;21202;-82
2020/12/04 06:52:30;;;;;;;15.48;10.70;;;;;;;3.06;64.02;96636.32;1713934;83;21320;-84
2020/12/04 06:54:58;;;;;;;16.75;10.40;;;;;;;3.06;63.08;96628.03;1698456;84;21209;-81
2020/12/04 06:57:25;;;;;;;18.60;11.38;;;;;;;3.09;63.55;96625.27;1703505;84;21119;-83
2020/12/04 06:59:53;;;;;;;16.00;10.10;;;;;;;3.13;63.36;96629.83;1693805;84;21162;-84
2020/12/04 07:02:25;;;;;;;10.75;5.37;;;;;;;3.20;63.58;96629.84;1697487;84;21210;-84
2020/12/04 07:04:54;;;;;;;15.72;10.15;;;;;;;3.28;63.36;96632.01;1697686;83;21534;-81
2020/12/04 07:07:28;;;;;;;13.53;7.40;;;;;;;3.23;62.72;96635.33;1607065;88;21193;-85
2020/12/04 07:10:04;;;;;;;14.13;8.98;;;;;;;3.30;63.20;96624.09;1597895;89;21212;-84
2020/12/04 07:12:36;;;;;;;12.58;7.83;;;;;;;3.29;62.57;96628.48;1528252;92;21641;-86
2020/12/04 07:15:04;;;;;;;11.22;6.83;;;;;;;3.37;62.97;96639.28;1594972;89;21243;-82
2020/12/04 07:17:31;;;;;;;15.50;9.85;;;;;;;3.48;62.78;96644.33;1595140;89;21255;-80
2020/12/04 07:20:00;;;;;;;10.18;5.55;;;;;;;3.55;61.70;96637.82;1597879;89;21219;-83
2020/12/04 07:22:28;;;;;;;15.70;10.40;;;;;;;3.64;61.96;96654.66;1538450;92;21263;-85
2020/12/04 07:24:57;;;;;;;16.02;9.28;;;;;;;3.66;61.54;96638.48;1566650;88;21195;-82
2020/12/04 07:27:29;;;;;;;14.65;9.35;;;;;;;3.73;62.32;96635.42;1630905;85;21669;-85
2020/12/04 07:29:58;;;;;;;11.10;6.15;;;;;;;3.82;60.96;96631.88;1668440;85;21205;-81
2020/12/04 07:32:27;;;;;;;14.68;6.75;;;;;;;3.97;61.50;96632.72;1681982;84;21168;-88
2020/12/04 07:34:54;;;;;;;14.18;9.00;;;;;;;4.04;61.26;96639.23;1684517;84;21430;-83
2020/12/04 07:37:27;;;;;;;15.80;8.43;;;;;;;4.04;61.17;96644.45;1683139;84;21593;-83
2020/12/04 07:39:55;;;;;;;12.65;8.23;;;;;;;4.12;59.99;96644.81;1684403;84;21184;-83
2020/12/04 07:42:23;;;;;;;14.15;8.63;;;;;;;4.25;60.67;96650.11;1685971;84;21144;-85
2020/12/04 07:44:53;;;;;;;14.47;8.48;;;;;;;4.32;59.84;96652.70;1731950;82;21175;-82
2020/12/04 07:47:21;;;;;;;11.73;7.17;;;;;;;4.37;59.99;96658.94;1730307;82;21622;-81
2020/12/04 07:49:54;;;;;;;12.68;7.87;;;;;;;4.43;59.90;96650.75;1704029;82;21156;-82
2020/12/04 07:52:25;;;;;;;12.05;7.67;;;;;;;4.49;59.47;96650.84;1735317;82;21116;-84
2020/12/04 07:55:04;;;;;;;11.60;7.85;;;;;;;4.57;59.98;96640.75;1732634;82;21140;-81
2020/12/04 07:57:47;;;;;;;12.88;8.50;;;;;;;4.61;59.41;96660.97;1733773;82;21120;-87
2020/12/04 08:00:16;;;;;;;9.00;5.53;;;;;;;4.65;59.17;96645.01;1691255;83;21199;-88
2020/12/04 08:02:44;;;;;;;7.28;4.92;;;;;;;4.62;58.69;96639.15;1723627;82;21144;-86
2020/12/04 08:05:20;;;;;;;12.75;8.05;;;;;;;4.65;58.84;96635.88;1733942;82;21622;-85
2020/12/04 08:07:52;;;;;;;15.83;7.90;;;;;;;4.69;58.16;96643.04;1728118;81;21160;-83
2020/12/04 08:10:22;;;;;;;13.95;8.68;;;;;;;4.71;58.31;96645.54;1729362;82;21140;-82
2020/12/04 08:12:50;;;;;;;15.10;8.90;;;;;;;4.77;58.44;96643.86;1729499;82;21157;-82
2020/12/04 08:15:19;;;;;;;9.98;6.37;;;;;;;4.80;59.10;96637.11;1703915;82;21559;-87
2020/12/04 08:17:46;;;;;;;14.47;8.50;;;;;;;4.86;58.75;96651.11;1730333;82;21725;-85
2020/12/04 08:20:17;;;;;;;8.93;6.12;;;;;;;4.88;59.04;96647.08;1730416;82;21170;-84
2020/12/04 08:22:50;;;;;;;11.35;7.55;;;;;;;4.93;58.20;96657.61;1725086;81;21608;-81
2020/12/04 08:25:31;;;;;;;14.18;8.40;;;;;;;4.98;58.22;96654.21;1715896;82;21171;-86
2020/12/04 08:28:00;;;;;;;18.50;9.13;;;;;;;5.02;58.83;96659.25;1729332;82;21237;-85
2020/12/04 08:30:29;;;;;;;8.53;5.83;;;;;;;5.02;58.71;96652.72;1727831;82;21180;-79
2020/12/04 08:33:05;;;;;;;11.65;7.08;;;;;;;5.02;58.71;96638.34;1724572;82;21594;-85
2020/12/04 08:35:41;;;;;;;15.23;7.80;;;;;;;5.10;58.32;96663.50;1721649;82;21169;-82
2020/12/04 08:38:24;;;;;;;16.07;8.55;;;;;;;5.14;58.71;96657.16;1726218;82;21149;-84
2020/12/04 08:40:53;;;;;;;14.35;8.85;;;;;;;5.13;58.20;96636.70;1725577;82;21566;-84
2020/12/04 08:43:24;;;;;;;16.17;6.67;;;;;;;5.18;58.11;96636.41;1720832;82;21151;-81
2020/12/04 08:45:56;;;;;;;14.25;8.25;;;;;;;5.23;58.54;96627.80;1723086;82;21484;-81
2020/12/04 08:48:32;;;;;;;11.12;6.97;;;;;;;5.21;58.22;96628.82;1722513;81;21188;-81
2020/12/04 08:51:06;;;;;;;14.30;8.90;;;;;;;5.23;58.27;96626.50;1718672;82;21117;-83
2020/12/04 08:53:36;;;;;;;15.55;8.30;;;;;;;5.29;58.13;96612.19;1723331;82;21109;-81
2020/12/04 08:56:05;;;;;;;17.10;8.10;;;;;;;5.35;57.95;96607.00;1723306;82;21180;-82
2020/12/04 08:58:35;;;;;;;10.15;5.20;;;;;;;5.43;57.70;96611.23;1727356;82;21199;-82
2020/12/04 09:01:03;;;;;;;12.90;8.13;;;;;;;5.50;58.16;96611.21;1723542;82;21212;-84
2020/12/04 09:03:30;;;;;;;11.95;8.58;;;;;;;5.49;57.93;96612.16;1724070;82;21128;-84
2020/12/04 09:05:58;;;;;;;9.13;5.42;;;;;;;5.50;57.91;96618.20;1724020;82;21161;-85
2020/12/04 09:08:25;;;;;;;7.87;5.97;;;;;;;5.60;58.13;96628.41;1720457;82;21199;-84
2020/12/04 09:11:06;;;;;;;10.85;6.90;;;;;;;5.71;58.08;96632.45;1796440;79;25206;-82
2020/12/04 09:13:33;;;;;;;14.20;6.80;;;;;;;5.67;57.34;96629.66;1790035;80;21465;-83
2020/12/04 09:16:01;;;;;;;13.35;8.88;;;;;;;5.74;58.16;96611.78;1793923;78;21129;-84
2020/12/04 09:18:28;;;;;;;8.88;6.50;;;;;;;5.82;56.83;96633.02;1816386;78;21187;-85
2020/12/04 09:20:55;;;;;;;16.62;8.10;;;;;;;5.91;57.21;96621.91;1820834;78;22392;-79
2020/12/04 09:23:23;;;;;;;15.60;8.03;;;;;;;5.96;57.04;96613.75;1799806;80;21159;-82
2020/12/04 09:25:50;;;;;;;10.60;5.80;;;;;;;5.98;56.66;96618.89;1794881;78;21206;-82
2020/12/04 09:28:19;;;;;;;16.93;9.33;;;;;;;6.08;57.22;96625.16;1795455;80;21140;-83
2020/12/04 09:30:46;;;;;;;10.50;7.45;;;;;;;6.04;56.43;96632.88;1795860;80;21212;-80
2020/12/04 09:33:13;;;;;;;14.53;8.15;;;;;;;6.14;56.33;96627.83;1802199;78;21155;-77
2020/12/04 09:35:41;;;;;;;10.88;7.85;;;;;;;6.18;56.71;96622.27;1801048;78;21162;-77
2020/12/04 09:38:08;;;;;;;8.58;4.85;;;;;;;6.21;57.21;96619.94;1800068;80;21139;-82
2020/12/04 09:40:36;;;;;;;21.23;7.60;;;;;;;6.31;57.15;96621.42;1813649;78;21183;-86
2020/12/04 09:43:04;;;;;;;14.13;7.97;;;;;;;6.34;57.32;96627.27;1795338;80;21159;-84
2020/12/04 09:45:32;;;;;;;14.20;6.97;;;;;;;6.44;56.86;96618.31;1797576;80;21301;-80
2020/12/04 09:47:59;;;;;;;8.03;4.83;;;;;;;6.52;56.37;96622.98;1822416;78;21142;-80
2020/12/04 09:50:27;;;;;;;13.45;8.53;;;;;;;6.64;57.02;96625.19;1806630;78;21131;-82
2020/12/04 09:52:55;;;;;;;9.78;6.60;;;;;;;6.71;57.17;96615.48;1815166;78;21249;-81
2020/12/04 09:55:24;;;;;;;14.20;8.45;;;;;;;6.80;55.93;96623.16;1828266;78;21120;-83
2020/12/04 09:57:51;;;;;;;10.45;7.67;;;;;;;6.91;56.30;96621.54;1828307;78;21517;-81
2020/12/04 10:00:18;;;;;;;10.18;5.97;;;;;;;6.91;56.30;96621.54;1818567;78;21647;-81
2020/12/04 10:02:46;;;;;;;18.45;7.65;;;;;;;6.91;56.04;96614.99;1796111;78;21125;-80
2020/12/04 10:05:13;;;;;;;13.30;6.97;;;;;;;7.11;55.81;96615.64;1798157;78;21127;-84
2020/12/04 10:07:40;;;;;;;10.72;6.33;;;;;;;7.11;55.81;96615.64;1759202;81;21137;-83
2020/12/04 10:10:08;;;;;;;10.15;6.40;;;;;;;7.14;55.78;96627.23;1748170;81;21166;-86
2020/12/04 10:12:35;;;;;;;19.37;9.68;;;;;;;7.13;55.61;96639.97;1736195;83;21149;-86
2020/12/04 10:15:03;;;;;;;10.28;5.00;;;;;;;7.07;55.69;96643.50;1736242;83;21165;-79
2020/12/04 10:17:31;;;;;;;14.07;7.55;;;;;;;7.17;56.16;96638.80;1736036;83;21191;-83
2020/12/04 10:19:58;;;;;;;12.78;8.85;;;;;;;7.13;56.03;96628.17;1718742;81;21142;-82
2020/12/04 10:22:27;;;;;;;15.10;8.60;;;;;;;7.00;55.49;96624.31;1730527;83;21213;-82
2020/12/04 10:24:55;;;;;;;13.20;8.65;;;;;;;7.13;56.40;96636.52;1706219;84;21122;-88
2020/12/04 10:27:22;;;;;;;17.87;8.73;;;;;;;7.13;56.04;96605.89;1706802;83;21187;-84
2020/12/04 10:29:50;;;;;;;14.63;9.30;;;;;;;7.13;56.04;96605.89;1706164;83;21592;-83
2020/12/04 10:32:18;;;;;;;12.98;7.83;;;;;;;7.18;55.61;96623.90;1718291;82;21148;-80
2020/12/04 10:34:47;;;;;;;16.20;7.60;;;;;;;7.21;56.85;96627.61;1717670;82;21157;-81
2020/12/04 10:37:14;;;;;;;21.87;10.43;;;;;;;7.23;56.45;96622.25;1735583;81;21165;-80
2020/12/04 10:39:42;;;;;;;10.20;6.85;;;;;;;7.31;56.84;96619.43;1724320;82;21153;-85
2020/12/04 10:42:09;;;;;;;19.55;11.12;;;;;;;7.45;55.18;96627.57;1721189;83;21140;-86
2020/12/04 10:44:36;;;;;;;11.80;7.55;;;;;;;7.45;55.18;96627.57;1717106;83;21158;-82
2020/12/04 10:47:05;;;;;;;16.67;9.30;;;;;;;7.62;56.57;96626.77;1718069;82;21164;-81
2020/12/04 10:49:33;;;;;;;16.37;9.00;;;;;;;7.62;56.57;96626.77;1733171;83;21298;-83
2020/12/04 10:52:00;;;;;;;14.10;9.43;;;;;;;7.65;56.26;96619.98;1734327;83;21160;-82
2020/12/04 10:54:28;;;;;;;15.78;8.98;;;;;;;7.73;55.52;96624.63;1735401;81;21190;-82
2020/12/04 10:56:56;;;;;;;13.72;8.85;;;;;;;7.81;56.24;96626.19;1746835;82;21152;-78
2020/12/04 10:59:24;;;;;;;15.43;9.60;;;;;;;7.85;55.26;96630.72;1720897;83;21139;-79
2020/12/04 11:01:57;;;;;;;11.12;6.92;;;;;;;7.90;55.83;96602.35;1735314;83;21138;-79
2020/12/04 11:07:06;;;;;;;13.90;8.98;;;;;;;7.96;54.63;96617.16;1740693;81;21115;-81
2020/12/04 11:09:35;;;;;;;12.35;7.40;;;;;;;7.96;54.63;96617.16;1704894;83;21166;-81
2020/12/04 11:12:02;;;;;;;11.63;6.75;;;;;;;8.03;55.24;96627.17;1705926;83;21160;-85
2020/12/04 11:14:30;;;;;;;15.72;6.53;;;;;;;8.02;55.30;96620.24;1718712;83;21147;-83
2020/12/04 11:16:57;;;;;;;16.00;9.08;;;;;;;8.02;55.24;96617.62;1718309;83;21747;-80
2020/12/04 11:19:25;;;;;;;15.90;9.33;;;;;;;8.00;55.76;96616.89;1718447;83;21156;-82
2020/12/04 11:21:52;;;;;;;17.05;7.10;;;;;;;8.00;55.76;96616.89;1718545;83;21163;-83
2020/12/04 11:24:19;;;;;;;11.38;6.17;;;;;;;8.04;55.29;96615.23;1718476;83;21652;-82
2020/12/04 11:26:48;;;;;;;11.68;5.72;;;;;;;8.05;55.45;96616.08;1744673;82;21165;-84
2020/12/04 11:29:16;;;;;;;17.60;10.15;;;;;;;8.05;55.45;96616.08;1746486;82;21165;-83
2020/12/04 11:31:43;;;;;;;15.03;10.23;;;;;;;7.97;55.49;96607.02;1733677;83;21124;-82
2020/12/04 11:34:10;;;;;;;13.28;9.15;;;;;;;7.97;55.49;96607.02;1746651;82;21144;-84
2020/12/04 11:36:38;;;;;;;18.27;10.38;;;;;;;8.06;55.96;96621.69;1746687;82;21152;-84
2020/12/04 11:39:05;;;;;;;10.53;6.33;;;;;;;8.08;55.89;96625.86;1733785;83;21111;-82
2020/12/04 11:41:33;;;;;;;16.97;9.73;;;;;;;8.12;56.19;96629.90;1718068;82;21162;-82
2020/12/04 11:44:01;;;;;;;15.08;9.63;;;;;;;8.12;56.19;96629.90;1717075;83;21171;-87